Airfield :
LOGIN :

Register | Disclaimer

   EN    FR    IT 

 










Legend :    VFR   Marginal VFR   IFR   Intensive IFR   Very Intensive IFR
Visi :
Ceiling :
>= 8 km
>= 3000ft
5 to 8 km
1000 to 3000 ft
1500m to 5 km
500 to 1000 ft
800 to 1500m
200 to 500 ft
< 800m
< 200 ft
Symbols :   Thunderstorms  Fog  Heavy snow  Heavy precipitations  Wind > 20 kt
SIGMETs :     Misc.  Thunderstorms  Icing  Turbulence  Mountain Waves  Volcanic Ashes







- Airport Elevation : 290 ft
- IATA code : LAI
- Download approach charts


LFRO - Lannion

CURRENT METAR :
  • 260900Z AUTO 24011KT 210V280 9999 BKN021 12/07 Q1022 NOSIG

EXPIRED METARs :
  • 260830Z AUTO 25010KT 9999 FEW020 11/06 Q1022 NOSIG
  • 260800Z AUTO 25009KT 9999 FEW017 11/07 Q1022 NOSIG
  • 260730Z AUTO 24009KT 9999 FEW021 BKN054 10/07 Q1022 NOSIG
  • 260700Z AUTO 22007KT 9999 SCT021 BKN028 09/06 Q1021 NOSIG
  • 260630Z AUTO 22005KT 9999 FEW018 08/06 Q1021 NOSIG

TAF TAF LFRO
Valid from the 26 at 06:00 until the 27 at 06:00 UTC


260500Z 2606/2706 20005KT 9999 SCT020
BECMG 2703/2706 18015KT
No reported NOTAMs for that airfield.



MET'MAP, your aeronautical weather chart ! - Copyright ORBIFLY December 2007 - Disclaimer

ORBIFLY MET'MAP TEAM :

Programming & Development : Alexandra Zaïnal
Concept & Development : Baudouin d'Aumeries
Co-Development & Prog : Marc-Olivier Méhu
Technical & hardware support : Manuel Goepfert

Contact : metmap@orbifly.com




SOURCES & CREDITS :

   NOAA